createdAt,value
2019-03-22T14:37:56.393Z,98674.31
2019-03-22T14:40:24.658Z,98674.72
2019-03-22T14:42:52.958Z,98683.71
2019-03-22T14:45:21.227Z,98671.67
2019-03-22T14:47:49.690Z,98676.64
2019-03-22T14:55:07.316Z,98670.23
2019-03-22T15:21:50.210Z,98645.84
2019-03-22T15:27:01.065Z,98651.16
2019-03-22T15:32:12.095Z,98644.30
2019-03-22T15:37:25.906Z,98644.93
2019-03-22T15:42:29.318Z,98647.83
2019-03-22T15:47:32.657Z,98643.52
2019-03-22T15:52:35.992Z,98636.31
2019-03-22T15:57:39.331Z,98643.05
2019-03-22T16:02:42.684Z,98636.53
2019-03-22T16:07:46.046Z,98631.77
2019-03-22T16:12:49.378Z,98633.25
2019-03-22T16:17:52.721Z,98625.58
2019-03-22T16:22:56.341Z,98644.72
2019-03-22T16:27:59.732Z,98636.32
2019-03-22T16:33:03.078Z,98640.44
2019-03-22T16:38:06.433Z,98633.91
2019-03-22T16:43:09.786Z,98639.27
2019-03-22T16:48:13.147Z,98634.23
2019-03-22T16:53:16.583Z,98632.82
2019-03-22T16:58:19.900Z,98633.41
2019-03-22T17:03:23.296Z,98637.09
2019-03-22T17:08:26.693Z,98635.73
2019-03-22T17:13:30.059Z,98631.46
2019-03-22T17:18:33.412Z,98635.38
2019-03-22T17:23:36.753Z,98634.62
2019-03-22T17:28:40.161Z,98637.45
2019-03-22T17:33:43.509Z,98633.02
2019-03-22T17:38:46.853Z,98635.91
2019-03-22T17:43:51.207Z,98643.69
2019-03-22T17:48:54.547Z,98643.45
2019-03-22T17:53:57.879Z,98640.23
2019-03-22T17:59:01.284Z,98643.26
2019-03-22T18:04:04.812Z,98649.58
2019-03-22T18:09:08.247Z,98649.58
2019-03-22T18:14:11.614Z,98657.36
2019-03-22T18:19:14.977Z,98665.61
2019-03-22T18:24:18.368Z,98663.63
2019-03-22T18:29:21.783Z,98665.08
2019-03-22T18:34:33.923Z,98669.63
2019-03-22T18:39:30.406Z,98669.88
2019-03-22T18:44:33.744Z,98671.03
2019-03-22T18:49:37.095Z,98670.39
2019-03-22T18:54:40.518Z,98671.73
2019-03-22T18:59:43.878Z,98671.00
2019-03-22T19:04:47.239Z,98673.98
2019-03-22T19:09:50.607Z,98680.73
2019-03-22T19:14:54.240Z,98678.09
2019-03-22T19:19:57.628Z,98671.01
2019-03-22T19:25:01.219Z,98671.15
2019-03-22T19:30:08.468Z,98672.50
2019-03-22T19:35:12.100Z,98679.17
2019-03-22T19:40:16.128Z,98677.20
2019-03-22T19:45:19.482Z,98679.59
2019-03-22T19:50:22.908Z,98677.88
2019-03-22T19:55:26.257Z,98684.41
2019-03-22T20:00:29.638Z,98690.87
2019-03-22T20:05:34.146Z,98687.86
2019-03-22T20:10:37.608Z,98690.56
2019-03-22T20:15:41.015Z,98691.17
2019-03-22T20:20:44.480Z,98695.82
2019-03-22T20:25:48.077Z,98691.64
2019-03-22T20:30:51.435Z,98696.14
2019-03-22T20:35:54.815Z,98693.23
2019-03-22T20:40:58.170Z,98693.00
2019-03-22T20:46:01.529Z,98695.27
2019-03-22T20:51:04.945Z,98698.66
2019-03-22T20:56:08.410Z,98693.92
2019-03-22T21:01:11.828Z,98691.60
2019-03-22T21:06:15.315Z,98691.22
2019-03-22T21:11:18.684Z,98692.83
2019-03-22T21:16:22.048Z,98693.49
2019-03-22T21:21:35.719Z,98693.44
2019-03-22T21:26:30.479Z,98701.58
2019-03-22T21:31:34.080Z,98701.54
2019-03-22T21:36:37.438Z,98690.35
2019-03-22T21:41:40.781Z,98687.16
2019-03-22T21:46:44.175Z,98688.98
2019-03-22T21:51:47.522Z,98685.05
2019-03-22T21:56:51.072Z,98682.39
2019-03-22T22:01:54.421Z,98678.76
2019-03-22T22:06:57.826Z,98672.98
2019-03-22T22:12:01.151Z,98673.09
2019-03-22T22:17:04.484Z,98677.95
2019-03-22T22:22:07.830Z,98677.84
2019-03-22T22:27:14.077Z,98672.89
2019-03-22T22:32:16.387Z,98675.50
2019-03-22T22:37:19.727Z,98683.09
2019-03-22T22:42:23.077Z,98682.34
2019-03-22T22:47:26.408Z,98674.97
2019-03-22T22:52:29.802Z,98676.27
2019-03-22T22:57:33.128Z,98670.94
2019-03-22T23:02:36.460Z,98670.58
2019-03-22T23:07:39.854Z,98662.79
2019-03-22T23:12:43.744Z,98669.25
2019-03-22T23:17:47.064Z,98668.73
2019-03-22T23:22:50.403Z,98675.24
2019-03-22T23:27:53.807Z,98678.41
2019-03-22T23:32:57.086Z,98675.49
2019-03-22T23:38:00.486Z,98682.14
2019-03-22T23:43:03.819Z,98680.36
2019-03-22T23:48:07.157Z,98681.08
2019-03-22T23:53:10.504Z,98685.09
2019-03-22T23:58:13.923Z,98684.80
